createdAt,value
2017-10-01T00:01:14.435Z,99.90
2017-10-01T00:03:41.614Z,99.90
2017-10-01T00:06:08.996Z,99.90
2017-10-01T00:08:35.452Z,99.90
2017-10-01T00:11:02.655Z,99.90
2017-10-01T00:13:29.131Z,99.90
2017-10-01T00:15:55.595Z,99.90
2017-10-01T00:18:22.814Z,99.90
2017-10-01T00:20:49.230Z,99.90
2017-10-01T00:23:16.019Z,99.90
2017-10-01T00:25:43.235Z,99.90
2017-10-01T00:28:09.675Z,99.90
2017-10-01T00:30:36.115Z,99.90
2017-10-01T00:33:02.568Z,99.90
2017-10-01T00:35:29.758Z,99.90
2017-10-01T00:37:56.236Z,99.90
2017-10-01T00:40:22.650Z,99.90
2017-10-01T00:42:49.122Z,99.90
2017-10-01T00:45:16.308Z,99.90
2017-10-01T00:47:42.746Z,99.90
2017-10-01T00:50:09.225Z,99.90
2017-10-01T00:52:36.410Z,99.90
2017-10-01T00:55:02.842Z,99.90
2017-10-01T00:57:29.275Z,99.90
2017-10-01T00:59:56.446Z,99.90
2017-10-01T01:02:22.911Z,99.90
2017-10-01T01:04:49.347Z,99.90
2017-10-01T01:07:15.783Z,99.90
2017-10-01T01:09:42.339Z,99.90
2017-10-01T01:12:08.746Z,99.90
2017-10-01T01:14:35.194Z,99.90
2017-10-01T01:17:02.376Z,99.90
2017-10-01T01:19:28.804Z,99.90
2017-10-01T01:21:55.270Z,99.90
2017-10-01T01:24:21.694Z,99.90
2017-10-01T01:26:48.281Z,99.90
2017-10-01T01:29:15.455Z,99.90
2017-10-01T01:31:41.887Z,99.90
2017-10-01T01:34:08.343Z,99.90
2017-10-01T01:36:34.748Z,99.90
2017-10-01T01:39:01.145Z,99.90
2017-10-01T01:41:27.619Z,99.90
2017-10-01T01:43:54.159Z,99.90
2017-10-01T01:46:20.606Z,99.90
2017-10-01T01:48:47.027Z,99.90
2017-10-01T01:51:13.559Z,99.90
2017-10-01T01:53:40.015Z,99.90
2017-10-01T01:56:06.451Z,99.90
2017-10-01T01:58:32.910Z,99.90
2017-10-01T02:00:59.342Z,99.90
2017-10-01T02:03:25.774Z,99.90
2017-10-01T02:05:52.255Z,99.90
2017-10-01T02:08:18.695Z,99.90
2017-10-01T02:10:45.118Z,99.90
2017-10-01T02:13:11.544Z,99.90
2017-10-01T02:15:37.994Z,99.90
2017-10-01T02:18:04.399Z,99.90
2017-10-01T02:20:30.855Z,99.90
2017-10-01T02:22:57.311Z,99.90
2017-10-01T02:25:23.727Z,99.90
2017-10-01T02:27:50.135Z,99.90
2017-10-01T02:30:16.630Z,99.90
2017-10-01T02:32:44.533Z,99.90
2017-10-01T02:35:10.935Z,99.90
2017-10-01T02:37:37.348Z,99.90
2017-10-01T02:40:03.783Z,99.90
2017-10-01T02:42:30.188Z,99.90
2017-10-01T02:44:56.631Z,99.90
2017-10-01T02:47:23.072Z,99.90
2017-10-01T02:49:49.518Z,99.90
2017-10-01T02:52:17.494Z,99.90
2017-10-01T02:54:44.072Z,99.90
2017-10-01T02:57:10.516Z,99.90
2017-10-01T02:59:36.998Z,99.90
2017-10-01T03:02:03.407Z,99.90
2017-10-01T03:04:29.823Z,99.90
2017-10-01T03:06:56.250Z,99.90
2017-10-01T03:09:22.674Z,99.90
2017-10-01T03:11:49.114Z,99.90
2017-10-01T03:14:15.518Z,99.90
2017-10-01T03:16:42.712Z,99.90
2017-10-01T03:19:09.119Z,99.90
2017-10-01T03:21:35.552Z,99.90
2017-10-01T03:24:02.015Z,99.90
2017-10-01T03:26:28.487Z,99.90
2017-10-01T03:28:55.770Z,99.90
2017-10-01T03:31:22.198Z,99.90
2017-10-01T03:33:48.652Z,99.90
2017-10-01T03:36:15.072Z,99.90
2017-10-01T03:38:41.483Z,99.90
2017-10-01T03:41:08.654Z,99.90
2017-10-01T03:43:35.095Z,99.90
2017-10-01T03:46:01.494Z,99.90
2017-10-01T03:48:28.674Z,99.90
2017-10-01T03:50:55.106Z,99.90
2017-10-01T03:53:21.521Z,99.90
2017-10-01T03:55:47.945Z,99.90
2017-10-01T03:58:14.418Z,99.90
2017-10-01T04:00:40.837Z,99.90
2017-10-01T04:03:07.247Z,99.90
2017-10-01T04:05:33.704Z,99.90
2017-10-01T04:08:00.159Z,99.90
2017-10-01T04:10:26.611Z,99.90
2017-10-01T04:12:53.019Z,99.90
2017-10-01T04:15:19.427Z,99.90
2017-10-01T04:17:46.031Z,99.90
2017-10-01T04:20:13.193Z,99.90
2017-10-01T04:22:39.625Z,99.90
2017-10-01T04:25:06.101Z,99.90
2017-10-01T04:27:32.559Z,99.90
2017-10-01T04:29:58.983Z,99.90
2017-10-01T04:32:25.406Z,99.90
2017-10-01T04:34:51.928Z,99.90
2017-10-01T04:37:18.355Z,99.90
2017-10-01T04:39:44.795Z,99.90
2017-10-01T04:42:11.208Z,99.90
2017-10-01T04:44:37.642Z,99.90
2017-10-01T04:47:04.088Z,99.90
2017-10-01T04:49:30.502Z,99.90
2017-10-01T04:51:56.974Z,99.90
2017-10-01T04:54:23.398Z,99.90
2017-10-01T04:56:49.897Z,99.90
2017-10-01T04:59:16.494Z,99.90
2017-10-01T05:01:42.923Z,99.90
2017-10-01T05:04:09.394Z,99.90
2017-10-01T05:06:35.823Z,99.90
2017-10-01T05:09:02.226Z,99.90
2017-10-01T05:11:28.674Z,99.90
2017-10-01T05:13:56.006Z,99.90
2017-10-01T05:16:22.462Z,99.90
2017-10-01T05:18:49.628Z,99.90
2017-10-01T05:21:16.093Z,99.90
2017-10-01T05:23:42.523Z,99.90
2017-10-01T05:26:08.931Z,99.90
2017-10-01T05:28:35.378Z,99.90
2017-10-01T05:31:01.800Z,99.90
2017-10-01T05:33:28.333Z,99.90
2017-10-01T05:35:54.775Z,99.90
2017-10-01T05:38:21.234Z,99.90
2017-10-01T05:40:47.695Z,99.90
2017-10-01T05:43:14.128Z,99.90
2017-10-01T05:45:40.679Z,99.90
2017-10-01T05:48:07.883Z,99.90
2017-10-01T05:50:34.558Z,99.90
2017-10-01T05:53:01.844Z,99.90
2017-10-01T05:55:28.332Z,99.90
2017-10-01T05:57:54.727Z,99.90
2017-10-01T06:00:21.182Z,99.90
2017-10-01T06:02:47.579Z,99.90
2017-10-01T06:05:14.035Z,99.90
2017-10-01T06:07:40.526Z,99.90
2017-10-01T06:10:06.934Z,99.90
2017-10-01T06:12:33.393Z,99.90
2017-10-01T06:14:59.862Z,99.90
2017-10-01T06:17:26.468Z,99.90
2017-10-01T06:19:52.936Z,99.90
2017-10-01T06:22:19.363Z,99.90
2017-10-01T06:24:45.863Z,99.90
2017-10-01T06:27:12.315Z,99.90
2017-10-01T06:29:38.766Z,99.90
2017-10-01T06:32:05.183Z,99.90
2017-10-01T06:34:31.717Z,99.90
2017-10-01T06:36:58.155Z,99.90
2017-10-01T06:39:24.602Z,99.90
2017-10-01T06:41:51.047Z,99.90
2017-10-01T06:44:17.475Z,99.90
2017-10-01T06:46:43.943Z,99.90
2017-10-01T06:49:11.125Z,99.90
2017-10-01T06:51:37.559Z,99.90
2017-10-01T06:54:04.022Z,99.90
2017-10-01T06:56:30.474Z,99.90
2017-10-01T06:58:56.903Z,99.90
2017-10-01T07:01:23.415Z,99.90
2017-10-01T07:03:49.942Z,99.90
2017-10-01T07:06:16.411Z,99.90
2017-10-01T07:08:42.851Z,99.90
2017-10-01T07:11:09.262Z,99.90
2017-10-01T07:13:35.715Z,99.90
2017-10-01T07:16:02.165Z,99.90
2017-10-01T07:18:29.398Z,99.90
2017-10-01T07:20:56.594Z,99.90
2017-10-01T07:23:23.056Z,99.90
2017-10-01T07:25:49.523Z,99.90
2017-10-01T07:28:16.755Z,99.90
2017-10-01T07:30:43.356Z,99.90
2017-10-01T07:33:10.010Z,99.90
2017-10-01T07:35:36.454Z,99.90
2017-10-01T07:38:02.902Z,99.90
2017-10-01T07:40:29.346Z,99.90
2017-10-01T07:42:56.550Z,99.90
2017-10-01T07:45:23.026Z,99.90
2017-10-01T07:47:49.605Z,99.90
2017-10-01T07:50:16.097Z,99.90
2017-10-01T07:52:43.305Z,99.90
2017-10-01T07:55:09.741Z,99.90
2017-10-01T07:57:36.589Z,99.90
2017-10-01T08:00:03.002Z,99.90
2017-10-01T08:02:29.430Z,99.90
2017-10-01T08:04:55.907Z,99.90
2017-10-01T08:07:22.379Z,99.90
2017-10-01T08:09:52.772Z,99.90
2017-10-01T08:12:19.207Z,99.90
2017-10-01T08:14:45.846Z,99.90
2017-10-01T08:17:13.038Z,99.90
2017-10-01T08:19:40.271Z,99.90
2017-10-01T08:22:07.441Z,99.90
2017-10-01T08:24:34.353Z,99.90
2017-10-01T08:27:01.598Z,99.90
2017-10-01T08:29:28.869Z,99.90
2017-10-01T08:31:55.352Z,99.90
2017-10-01T08:34:21.998Z,99.90
2017-10-01T08:36:48.626Z,99.90
2017-10-01T08:39:15.104Z,99.90
2017-10-01T08:41:42.471Z,99.90
2017-10-01T08:44:08.899Z,99.90
2017-10-01T08:46:36.089Z,99.90
2017-10-01T08:49:02.574Z,99.90
2017-10-01T08:51:34.444Z,99.90
2017-10-01T08:54:00.914Z,99.90
2017-10-01T08:56:27.395Z,99.90
2017-10-01T08:58:53.863Z,99.90
2017-10-01T09:01:20.326Z,99.90
2017-10-01T09:03:46.810Z,99.90
2017-10-01T09:06:14.095Z,99.90
2017-10-01T09:08:40.625Z,99.90
2017-10-01T09:11:07.136Z,99.90
2017-10-01T09:13:33.604Z,99.90
2017-10-01T09:16:00.101Z,99.90
2017-10-01T09:18:27.320Z,99.90
2017-10-01T09:20:54.666Z,99.90
2017-10-01T09:23:21.135Z,99.90
2017-10-01T09:25:48.388Z,99.90
2017-10-01T09:28:15.570Z,99.90
2017-10-01T09:30:41.985Z,99.90
2017-10-01T09:33:09.007Z,99.90
2017-10-01T09:35:35.458Z,99.90
2017-10-01T09:38:01.970Z,99.90
2017-10-01T09:40:28.451Z,99.90
2017-10-01T09:42:54.890Z,99.90
2017-10-01T09:45:21.414Z,99.90
2017-10-01T09:47:47.867Z,99.90
2017-10-01T09:50:14.323Z,99.90
2017-10-01T09:52:42.292Z,99.90
2017-10-01T09:55:09.489Z,99.90
2017-10-01T09:57:36.086Z,99.90
2017-10-01T10:00:03.279Z,99.90
2017-10-01T10:02:29.756Z,99.90
2017-10-01T10:04:56.456Z,99.90
2017-10-01T10:07:22.906Z,99.90
2017-10-01T10:09:49.411Z,99.90
2017-10-01T10:12:15.838Z,99.90
2017-10-01T10:14:42.479Z,99.90
2017-10-01T10:17:10.909Z,99.90
2017-10-01T10:19:37.382Z,99.90
2017-10-01T10:22:04.656Z,99.90
2017-10-01T10:24:31.083Z,99.90
2017-10-01T10:26:57.551Z,99.90
2017-10-01T10:29:24.088Z,99.90
2017-10-01T10:31:50.625Z,99.90
2017-10-01T10:34:17.079Z,99.90
2017-10-01T10:36:43.583Z,99.90
2017-10-01T10:39:10.020Z,99.90
2017-10-01T10:41:36.515Z,99.90
2017-10-01T10:44:03.084Z,99.90
2017-10-01T10:46:29.516Z,99.90
2017-10-01T10:48:55.979Z,99.90
2017-10-01T10:51:24.095Z,99.90
2017-10-01T10:53:50.621Z,99.90
2017-10-01T10:56:18.282Z,99.90
2017-10-01T10:58:44.739Z,99.90
2017-10-01T11:01:11.216Z,99.90
2017-10-01T11:03:37.660Z,99.90
2017-10-01T11:06:04.887Z,99.90
2017-10-01T11:08:31.372Z,99.90
2017-10-01T11:10:58.546Z,99.90
2017-10-01T11:13:24.999Z,99.90
2017-10-01T11:15:51.449Z,99.90
2017-10-01T11:18:23.981Z,99.90
2017-10-01T11:20:50.433Z,99.90
2017-10-01T11:23:16.948Z,99.90
2017-10-01T11:25:43.380Z,99.90
2017-10-01T11:28:09.967Z,99.90
2017-10-01T11:30:36.487Z,99.90
2017-10-01T11:33:02.945Z,99.90
2017-10-01T11:35:30.266Z,99.90
2017-10-01T11:37:56.742Z,99.90
2017-10-01T11:40:23.907Z,99.90
2017-10-01T11:42:50.382Z,99.90
2017-10-01T11:45:16.887Z,99.90
2017-10-01T11:47:43.343Z,99.90
2017-10-01T11:50:09.783Z,99.90
2017-10-01T11:52:36.274Z,99.90
2017-10-01T11:55:02.764Z,99.90
2017-10-01T11:57:29.195Z,99.90
2017-10-01T11:59:55.634Z,99.90
2017-10-01T12:02:22.168Z,99.90
2017-10-01T12:04:48.614Z,99.90
2017-10-01T12:07:15.851Z,99.90
2017-10-01T12:09:42.311Z,99.90
2017-10-01T12:12:09.462Z,99.90
2017-10-01T12:14:35.926Z,99.90
2017-10-01T12:17:02.380Z,99.90
2017-10-01T12:19:28.847Z,99.90
2017-10-01T12:21:56.188Z,99.90
2017-10-01T12:24:22.851Z,99.90
2017-10-01T12:26:50.040Z,92.00
2017-10-01T12:29:16.503Z,92.00
2017-10-01T12:31:42.967Z,83.00
2017-10-01T12:34:10.143Z,85.80
2017-10-01T12:36:36.663Z,85.80
2017-10-01T12:39:03.086Z,90.00
2017-10-01T12:41:29.546Z,92.70
2017-10-01T12:43:56.026Z,91.90
2017-10-01T12:46:22.545Z,86.80
2017-10-01T12:48:49.011Z,82.30
2017-10-01T12:51:16.243Z,85.30
2017-10-01T12:53:42.676Z,85.40
2017-10-01T12:56:09.155Z,82.10
2017-10-01T12:58:35.595Z,76.10
2017-10-01T13:01:02.023Z,66.30
2017-10-01T13:03:28.487Z,63.60
2017-10-01T13:05:54.927Z,64.60
2017-10-01T13:08:22.924Z,64.50
2017-10-01T13:10:50.127Z,59.60
2017-10-01T13:13:16.628Z,59.50
2017-10-01T13:15:43.036Z,57.20
2017-10-01T13:18:10.206Z,60.70
2017-10-01T13:20:37.402Z,69.70
2017-10-01T13:23:03.831Z,69.60
2017-10-01T13:25:30.374Z,71.30
2017-10-01T13:27:56.768Z,68.40
2017-10-01T13:30:23.308Z,66.10
2017-10-01T13:32:49.754Z,65.20
2017-10-01T13:35:16.232Z,59.10
2017-10-01T13:37:42.666Z,58.40
2017-10-01T13:40:09.108Z,58.70
2017-10-01T13:42:36.400Z,55.20
2017-10-01T13:45:02.832Z,55.10
2017-10-01T13:47:29.295Z,51.00
2017-10-01T13:49:55.731Z,50.10
2017-10-01T13:52:22.198Z,49.20
2017-10-01T13:54:49.435Z,47.40
2017-10-01T13:57:16.630Z,46.80
2017-10-01T13:59:43.087Z,46.70
2017-10-01T14:02:09.580Z,45.60
2017-10-01T14:04:36.040Z,47.00
2017-10-01T14:07:02.491Z,47.10
2017-10-01T14:09:28.920Z,47.50
2017-10-01T14:11:55.411Z,47.50
2017-10-01T14:14:21.879Z,48.00
2017-10-01T14:16:48.342Z,48.60
2017-10-01T14:19:14.926Z,47.80
2017-10-01T14:21:41.424Z,46.10
2017-10-01T14:24:08.016Z,46.50
2017-10-01T14:26:34.499Z,45.20
2017-10-01T14:29:01.827Z,45.30
2017-10-01T14:31:28.282Z,45.30
2017-10-01T14:33:55.511Z,45.20
2017-10-01T14:36:21.971Z,45.10
2017-10-01T14:38:49.155Z,45.50
2017-10-01T14:41:15.582Z,45.50
2017-10-01T14:43:42.069Z,46.40
2017-10-01T14:46:08.569Z,45.80
2017-10-01T14:48:35.015Z,47.30
2017-10-01T14:51:01.542Z,47.30
2017-10-01T14:53:27.971Z,45.50
2017-10-01T14:55:54.446Z,44.50
2017-10-01T14:58:21.641Z,46.30
2017-10-01T15:00:48.067Z,46.30
2017-10-01T15:03:14.541Z,46.10
2017-10-01T15:05:40.980Z,46.50
2017-10-01T15:08:07.440Z,48.80
2017-10-01T15:10:34.622Z,49.80
2017-10-01T15:13:02.907Z,49.90
2017-10-01T15:15:29.372Z,53.80
2017-10-01T15:17:55.860Z,52.10
2017-10-01T15:20:22.352Z,52.60
2017-10-01T15:22:48.779Z,53.00
2017-10-01T15:25:15.215Z,52.00
2017-10-01T15:27:41.683Z,51.70
2017-10-01T15:30:08.211Z,52.00
2017-10-01T15:32:35.387Z,50.90
2017-10-01T15:35:01.853Z,50.90
2017-10-01T15:37:28.494Z,50.80
2017-10-01T15:39:54.922Z,50.00
2017-10-01T15:42:21.370Z,51.20
2017-10-01T15:44:47.876Z,53.80
2017-10-01T15:47:14.393Z,54.40
2017-10-01T15:49:40.867Z,55.00
2017-10-01T15:52:07.354Z,55.10
2017-10-01T15:54:33.835Z,55.20
2017-10-01T15:57:00.277Z,54.30
2017-10-01T15:59:26.731Z,55.50
2017-10-01T16:01:53.975Z,55.50
2017-10-01T16:04:21.169Z,55.20
2017-10-01T16:06:47.629Z,55.10
2017-10-01T16:09:14.228Z,57.80
2017-10-01T16:11:40.764Z,58.20
2017-10-01T16:14:07.263Z,59.10
2017-10-01T16:16:34.561Z,60.90
2017-10-01T16:19:00.989Z,60.70
2017-10-01T16:21:27.487Z,62.50
2017-10-01T16:26:44.895Z,67.30
2017-10-01T16:29:11.362Z,67.40
2017-10-01T16:31:38.791Z,80.90
2017-10-01T16:34:05.231Z,80.90
2017-10-01T16:36:31.680Z,94.50
2017-10-01T16:38:58.899Z,99.90
2017-10-01T16:41:26.125Z,99.90
2017-10-01T16:43:52.583Z,99.90
2017-10-01T16:46:19.014Z,99.90
2017-10-01T16:48:45.495Z,99.90
2017-10-01T16:51:12.046Z,99.90
2017-10-01T16:53:38.571Z,99.90
2017-10-01T16:56:05.010Z,99.90
2017-10-01T16:58:31.458Z,99.90
2017-10-01T17:00:58.077Z,99.90
2017-10-01T17:03:24.506Z,99.90
2017-10-01T17:05:51.857Z,99.90
2017-10-01T17:08:18.364Z,99.90
2017-10-01T17:10:45.602Z,99.90
2017-10-01T17:13:12.038Z,99.90
2017-10-01T17:15:38.517Z,99.90
2017-10-01T17:18:04.989Z,99.90
2017-10-01T17:20:31.438Z,99.90
2017-10-01T17:22:57.984Z,99.90
2017-10-01T17:25:25.183Z,99.90
2017-10-01T17:27:51.700Z,99.90
2017-10-01T17:33:07.129Z,99.90
2017-10-01T17:35:33.664Z,99.90
2017-10-01T17:38:00.274Z,99.90
2017-10-01T17:40:26.841Z,99.90
2017-10-01T17:42:53.334Z,99.90
2017-10-01T17:45:19.831Z,99.90
2017-10-01T17:47:46.580Z,99.90
2017-10-01T17:50:13.939Z,99.90
2017-10-01T17:52:41.163Z,99.90
2017-10-01T17:55:07.617Z,99.90
2017-10-01T17:57:34.835Z,99.90
2017-10-01T18:00:01.335Z,99.90
2017-10-01T18:02:28.082Z,99.90
2017-10-01T18:04:54.617Z,99.90
2017-10-01T18:07:21.082Z,99.90
2017-10-01T18:09:49.282Z,99.90
2017-10-01T18:12:16.587Z,99.90
2017-10-01T18:14:43.145Z,99.90
2017-10-01T18:19:59.060Z,99.90
2017-10-01T18:22:25.500Z,99.90
2017-10-01T18:24:52.039Z,99.90
2017-10-01T18:27:18.537Z,99.90
2017-10-01T18:29:45.006Z,99.90
2017-10-01T18:32:11.466Z,99.90
2017-10-01T18:34:38.782Z,99.90
2017-10-01T18:37:05.289Z,99.90
2017-10-01T18:39:31.732Z,99.90
2017-10-01T18:41:58.269Z,99.90
2017-10-01T18:44:24.811Z,99.90
2017-10-01T18:46:51.303Z,99.90
2017-10-01T18:49:17.912Z,99.90
2017-10-01T18:51:45.152Z,99.90
2017-10-01T18:54:11.806Z,99.90
2017-10-01T18:56:39.046Z,99.90
2017-10-01T18:59:07.979Z,99.90
2017-10-01T19:01:34.666Z,99.90
2017-10-01T19:04:02.624Z,99.90
2017-10-01T19:06:29.072Z,99.90
2017-10-01T19:08:55.566Z,99.90
2017-10-01T19:11:22.110Z,99.90
2017-10-01T19:13:48.643Z,99.90
2017-10-01T19:16:15.172Z,99.90
2017-10-01T19:18:41.806Z,99.90
2017-10-01T19:21:08.308Z,99.90
2017-10-01T19:23:34.882Z,99.90
2017-10-01T19:26:01.408Z,99.90
2017-10-01T19:28:27.933Z,99.90
2017-10-01T19:30:54.379Z,99.90
2017-10-01T19:33:20.862Z,99.90
2017-10-01T19:35:48.175Z,99.90
2017-10-01T19:38:14.643Z,99.90
2017-10-01T19:40:41.873Z,99.90
2017-10-01T19:43:09.276Z,99.90
2017-10-01T19:45:35.784Z,99.90
2017-10-01T19:48:02.978Z,99.90
2017-10-01T19:50:29.450Z,99.90
2017-10-01T19:52:55.922Z,99.90
2017-10-01T19:55:23.128Z,99.90
2017-10-01T19:57:49.598Z,99.90
2017-10-01T20:00:16.826Z,99.90
2017-10-01T20:02:43.269Z,99.90
2017-10-01T20:05:09.749Z,99.90
2017-10-01T20:07:36.307Z,99.90
2017-10-01T20:10:02.792Z,99.90
2017-10-01T20:12:30.006Z,99.90
2017-10-01T20:14:56.566Z,99.90
2017-10-01T20:17:23.774Z,99.90
2017-10-01T20:19:50.267Z,99.90
2017-10-01T20:22:16.730Z,99.90
2017-10-01T20:24:43.184Z,99.90
2017-10-01T20:27:09.645Z,99.90
2017-10-01T20:29:36.819Z,99.90
2017-10-01T20:32:03.267Z,99.90
2017-10-01T20:37:19.073Z,99.90
2017-10-01T20:39:45.585Z,99.90
2017-10-01T20:42:12.806Z,99.90
2017-10-01T20:44:39.308Z,99.90
2017-10-01T20:47:05.784Z,99.90
2017-10-01T20:49:33.194Z,99.90
2017-10-01T20:51:59.710Z,99.90
2017-10-01T20:54:26.315Z,99.90
2017-10-01T20:56:53.527Z,99.90
2017-10-01T20:59:19.999Z,99.90
2017-10-01T21:01:47.235Z,99.90
2017-10-01T21:04:13.826Z,99.90
2017-10-01T21:06:40.758Z,99.90
2017-10-01T21:09:07.207Z,99.90
2017-10-01T21:11:33.733Z,99.90
2017-10-01T21:14:00.239Z,99.90
2017-10-01T21:16:27.447Z,99.90
2017-10-01T21:18:54.087Z,99.90
2017-10-01T21:21:20.576Z,99.90
2017-10-01T21:23:47.803Z,99.90
2017-10-01T21:26:14.991Z,99.90
2017-10-01T21:28:41.484Z,99.90
2017-10-01T21:31:07.919Z,99.90
2017-10-01T21:33:35.234Z,99.90
2017-10-01T21:36:01.884Z,99.90
2017-10-01T21:38:28.430Z,99.90
2017-10-01T21:40:54.891Z,99.90
2017-10-01T21:43:22.071Z,99.90
2017-10-01T21:45:48.574Z,99.90
2017-10-01T21:48:15.057Z,99.90
2017-10-01T21:50:41.772Z,99.90
2017-10-01T21:53:08.243Z,99.90
2017-10-01T21:55:34.785Z,99.90
2017-10-01T21:58:01.247Z,99.90
2017-10-01T22:00:28.409Z,99.90
2017-10-01T22:02:54.876Z,99.90
2017-10-01T22:05:21.315Z,99.90
2017-10-01T22:07:47.784Z,99.90
2017-10-01T22:10:14.215Z,99.90
2017-10-01T22:12:40.818Z,99.90
2017-10-01T22:15:07.290Z,99.90
2017-10-01T22:17:34.454Z,99.90
2017-10-01T22:20:01.687Z,99.90
2017-10-01T22:22:28.873Z,99.90
2017-10-01T22:24:55.336Z,99.90
2017-10-01T22:27:21.788Z,99.90
2017-10-01T22:29:48.308Z,99.90
2017-10-01T22:32:14.756Z,99.90
2017-10-01T22:34:41.319Z,99.90
2017-10-01T22:37:08.532Z,99.90
2017-10-01T22:39:34.975Z,99.90
2017-10-01T22:42:01.431Z,99.90
2017-10-01T22:44:28.632Z,99.90
2017-10-01T22:46:55.068Z,99.90
2017-10-01T22:49:21.621Z,99.90
2017-10-01T22:51:48.130Z,99.90
2017-10-01T22:54:14.560Z,99.90
2017-10-01T22:56:41.040Z,99.90
2017-10-01T22:59:07.497Z,99.90
2017-10-01T23:01:34.667Z,99.90
2017-10-01T23:04:01.130Z,99.90
2017-10-01T23:06:27.574Z,99.90
2017-10-01T23:08:55.458Z,99.90
2017-10-01T23:11:21.974Z,99.90
2017-10-01T23:13:48.451Z,99.90
2017-10-01T23:16:14.909Z,99.90
2017-10-01T23:18:41.370Z,99.90
2017-10-01T23:21:07.849Z,99.90
2017-10-01T23:23:34.301Z,99.90
2017-10-01T23:26:00.775Z,99.90
2017-10-01T23:28:27.201Z,99.90
2017-10-01T23:30:53.696Z,99.90
2017-10-01T23:33:20.117Z,99.90
2017-10-01T23:35:46.553Z,99.90
2017-10-01T23:38:13.028Z,99.90
2017-10-01T23:40:39.427Z,99.90
2017-10-01T23:43:05.885Z,99.90
2017-10-01T23:45:32.326Z,99.90
2017-10-01T23:47:58.766Z,99.90
2017-10-01T23:50:25.245Z,99.90
2017-10-01T23:52:52.569Z,99.90
2017-10-01T23:55:19.046Z,99.90
2017-10-01T23:57:45.457Z,99.90
